createdAt,value
2018-05-18T00:01:13.837Z,31.53
2018-05-18T00:03:42.183Z,28.80
2018-05-18T00:06:12.189Z,29.83
2018-05-18T00:08:41.289Z,30.57
2018-05-18T00:11:09.591Z,28.30
2018-05-18T00:13:38.699Z,33.30
2018-05-18T00:16:07.784Z,30.00
2018-05-18T00:18:36.102Z,32.60
2018-05-18T00:21:04.438Z,31.47
2018-05-18T00:23:32.794Z,32.13
2018-05-18T00:26:01.109Z,31.07
2018-05-18T00:28:30.207Z,29.20
2018-05-18T00:30:59.297Z,29.53
2018-05-18T00:33:28.376Z,26.93
2018-05-18T00:35:56.731Z,28.40
2018-05-18T00:38:25.053Z,29.13
2018-05-18T00:40:53.395Z,31.00
2018-05-18T00:43:21.716Z,22.97
2018-05-18T00:45:50.062Z,30.60
2018-05-18T00:48:18.375Z,29.70
2018-05-18T00:50:46.713Z,29.07
2018-05-18T00:53:15.026Z,27.90
2018-05-18T00:55:43.359Z,32.13
2018-05-18T00:58:11.670Z,33.03
2018-05-18T01:00:40.009Z,34.57
2018-05-18T01:03:09.088Z,34.37
2018-05-18T01:05:37.446Z,26.67
2018-05-18T01:08:05.778Z,34.77
2018-05-18T01:10:34.842Z,33.27
2018-05-18T01:13:03.201Z,29.53
2018-05-18T01:15:31.518Z,31.70
2018-05-18T01:18:00.615Z,31.23
2018-05-18T01:20:28.915Z,29.67
2018-05-18T01:22:57.245Z,29.43
2018-05-18T01:25:25.557Z,31.53
2018-05-18T01:27:53.881Z,35.23
2018-05-18T01:30:22.201Z,32.57
2018-05-18T01:32:51.522Z,31.33
2018-05-18T01:35:19.847Z,32.77
2018-05-18T01:37:48.162Z,24.63
2018-05-18T01:40:16.503Z,32.70
2018-05-18T01:42:44.810Z,29.50
2018-05-18T01:45:13.149Z,36.03
2018-05-18T01:47:42.613Z,35.70
2018-05-18T01:50:10.938Z,35.53
2018-05-18T01:52:41.117Z,32.13
2018-05-18T01:55:09.538Z,35.50
2018-05-18T01:57:39.387Z,29.43
2018-05-18T02:00:07.931Z,29.57
2018-05-18T02:02:36.494Z,24.30
2018-05-18T02:05:04.827Z,26.13
2018-05-18T02:07:33.806Z,30.07
2018-05-18T02:10:02.883Z,26.57
2018-05-18T02:12:31.511Z,31.57
2018-05-18T02:14:59.951Z,26.77
2018-05-18T02:17:28.278Z,26.07
2018-05-18T02:19:56.603Z,28.47
2018-05-18T02:22:24.949Z,24.40
2018-05-18T02:24:53.282Z,32.80
2018-05-18T02:27:21.663Z,27.03
2018-05-18T02:29:49.991Z,29.47
2018-05-18T02:32:18.326Z,28.23
2018-05-18T02:34:48.153Z,26.63
2018-05-18T02:37:16.560Z,28.60
2018-05-18T02:39:44.897Z,25.90
2018-05-18T02:42:13.231Z,23.83
2018-05-18T02:44:41.599Z,23.30
2018-05-18T02:47:10.708Z,22.43
2018-05-18T02:49:39.027Z,28.10
2018-05-18T02:52:07.344Z,32.97
2018-05-18T02:54:36.464Z,23.67
2018-05-18T02:57:04.764Z,21.10
2018-05-18T02:59:33.108Z,19.17
2018-05-18T03:02:01.511Z,22.80
2018-05-18T03:04:30.618Z,19.43
2018-05-18T03:06:59.707Z,22.27
2018-05-18T03:09:28.802Z,22.73
2018-05-18T03:11:57.893Z,18.30
2018-05-18T03:14:26.246Z,15.90
2018-05-18T03:16:54.555Z,18.10
2018-05-18T03:19:23.669Z,19.93
2018-05-18T03:21:52.744Z,21.87
2018-05-18T03:24:21.083Z,18.60
2018-05-18T03:26:49.417Z,20.30
2018-05-18T03:29:18.494Z,18.47
2018-05-18T03:31:46.829Z,14.87
2018-05-18T03:34:15.151Z,20.57
2018-05-18T03:36:43.509Z,16.10
2018-05-18T03:39:11.817Z,20.80
2018-05-18T03:41:40.161Z,21.23
2018-05-18T03:44:08.472Z,22.73
2018-05-18T03:46:36.826Z,17.00
2018-05-18T03:49:05.910Z,19.67
2018-05-18T03:51:34.222Z,21.90
2018-05-18T03:54:02.564Z,20.07
2018-05-18T03:56:30.887Z,17.23
2018-05-18T03:58:59.217Z,14.93
2018-05-18T04:01:40.194Z,20.60
2018-05-18T04:04:21.372Z,16.33
2018-05-18T04:09:49.403Z,16.67
2018-05-18T04:12:17.756Z,17.00
2018-05-18T04:14:46.070Z,16.17
2018-05-18T04:17:14.374Z,20.07
2018-05-18T04:19:43.469Z,11.53
2018-05-18T04:22:12.532Z,16.53
2018-05-18T04:24:40.841Z,13.47
2018-05-18T04:27:09.177Z,16.60
2018-05-18T04:29:37.528Z,20.30
2018-05-18T04:32:06.590Z,14.43
2018-05-18T04:34:34.934Z,14.67
2018-05-18T04:37:03.244Z,17.23
2018-05-18T04:39:31.566Z,22.13
2018-05-18T04:42:00.652Z,16.37
2018-05-18T04:44:28.964Z,14.43
2018-05-18T04:46:57.307Z,19.13
2018-05-18T04:49:25.695Z,17.37
2018-05-18T04:51:53.976Z,13.70
2018-05-18T04:54:22.307Z,18.23
2018-05-18T04:56:50.645Z,20.33
2018-05-18T04:59:18.954Z,16.70
2018-05-18T05:01:47.288Z,17.77
2018-05-18T05:04:15.594Z,16.93
2018-05-18T05:06:44.710Z,16.47
2018-05-18T05:09:13.034Z,17.93
2018-05-18T05:11:41.344Z,19.90
2018-05-18T05:14:09.670Z,16.10
2018-05-18T05:16:37.997Z,22.43
2018-05-18T05:19:06.325Z,14.10
2018-05-18T05:21:34.639Z,17.43
2018-05-18T05:24:02.971Z,19.93
2018-05-18T05:26:32.042Z,18.13
2018-05-18T05:29:01.143Z,20.70
2018-05-18T05:31:29.453Z,21.67
2018-05-18T05:33:58.565Z,20.37
2018-05-18T05:36:26.888Z,16.07
2018-05-18T05:38:55.295Z,23.60
2018-05-18T05:41:23.617Z,18.63
2018-05-18T05:43:51.965Z,21.30
2018-05-18T05:46:21.057Z,17.47
2018-05-18T05:48:49.387Z,18.70
2018-05-18T05:51:17.714Z,18.60
2018-05-18T05:53:46.046Z,22.03
2018-05-18T05:56:14.395Z,24.63
2018-05-18T05:58:43.990Z,24.77
2018-05-18T06:01:13.084Z,18.40
2018-05-18T06:03:43.044Z,27.27
2018-05-18T06:06:11.501Z,19.67
2018-05-18T06:08:42.158Z,20.33
2018-05-18T06:11:10.566Z,25.50
2018-05-18T06:13:40.296Z,21.47
2018-05-18T06:16:08.613Z,19.57
2018-05-18T06:18:37.717Z,20.87
2018-05-18T06:21:06.814Z,21.80
2018-05-18T06:23:36.085Z,21.63
2018-05-18T06:26:04.418Z,22.77
2018-05-18T06:28:32.798Z,26.73
2018-05-18T06:31:01.234Z,24.93
2018-05-18T06:33:29.567Z,24.90
2018-05-18T06:35:57.897Z,18.27
2018-05-18T06:38:26.198Z,21.50
2018-05-18T06:40:55.304Z,23.93
2018-05-18T06:43:23.701Z,24.97
2018-05-18T06:45:52.800Z,26.37
2018-05-18T06:48:21.872Z,30.80
2018-05-18T06:50:50.206Z,33.53
2018-05-18T06:53:18.522Z,28.30
2018-05-18T06:55:46.873Z,28.40
2018-05-18T06:58:15.190Z,27.13
2018-05-18T07:00:44.278Z,29.13
2018-05-18T07:03:12.618Z,29.43
2018-05-18T07:05:40.931Z,30.87
2018-05-18T07:08:09.277Z,26.23
2018-05-18T07:10:37.610Z,27.90
2018-05-18T07:13:06.711Z,23.57
2018-05-18T07:15:35.020Z,28.27
2018-05-18T07:18:04.138Z,30.17
2018-05-18T07:20:32.446Z,31.97
2018-05-18T07:23:00.823Z,33.30
2018-05-18T07:25:29.881Z,30.77
2018-05-18T07:27:58.968Z,31.07
2018-05-18T07:30:28.080Z,33.40
2018-05-18T07:32:57.158Z,32.67
2018-05-18T07:35:26.255Z,37.17
2018-05-18T07:37:54.590Z,29.13
2018-05-18T07:40:22.934Z,31.20
2018-05-18T07:42:52.028Z,30.83
2018-05-18T07:45:20.375Z,35.07
2018-05-18T07:47:48.688Z,26.47
2018-05-18T07:50:17.037Z,31.70
2018-05-18T07:52:45.350Z,28.57
2018-05-18T07:55:13.662Z,26.10
2018-05-18T07:57:42.013Z,25.07
2018-05-18T08:00:12.030Z,25.70
2018-05-18T08:02:41.207Z,29.00
2018-05-18T08:05:09.536Z,29.60
2018-05-18T08:07:38.646Z,27.67
2018-05-18T08:10:06.966Z,25.80
2018-05-18T08:12:35.278Z,28.33
2018-05-18T08:15:04.417Z,31.10
2018-05-18T08:17:32.758Z,33.70
2018-05-18T08:20:01.102Z,31.33
2018-05-18T08:22:29.433Z,31.83
2018-05-18T08:24:58.556Z,35.27
2018-05-18T08:27:27.649Z,29.13
2018-05-18T08:29:55.979Z,27.27
2018-05-18T08:32:24.302Z,27.83
2018-05-18T08:34:53.406Z,29.30
2018-05-18T08:37:21.733Z,28.47
2018-05-18T08:39:50.088Z,32.97
2018-05-18T08:42:18.438Z,34.13
2018-05-18T08:44:47.529Z,33.97
2018-05-18T08:47:15.860Z,30.10
2018-05-18T08:49:44.222Z,35.00
2018-05-18T08:52:12.535Z,33.07
2018-05-18T08:54:40.856Z,31.00
2018-05-18T08:57:09.978Z,39.77
2018-05-18T08:59:39.059Z,32.17
2018-05-18T09:02:08.155Z,32.33
2018-05-18T09:04:36.478Z,28.60
2018-05-18T09:07:04.811Z,31.03
2018-05-18T09:09:33.894Z,30.87
2018-05-18T09:12:02.225Z,34.40
2018-05-18T09:14:31.733Z,30.23
2018-05-18T09:17:00.092Z,33.60
2018-05-18T09:19:30.995Z,38.17
2018-05-18T09:22:00.132Z,32.60
2018-05-18T09:24:31.139Z,29.90
2018-05-18T09:26:59.452Z,33.60
2018-05-18T09:29:30.134Z,32.90
2018-05-18T09:31:58.664Z,40.17
2018-05-18T09:34:27.232Z,39.63
2018-05-18T09:36:55.728Z,27.80
2018-05-18T09:39:24.325Z,31.97
2018-05-18T09:41:52.635Z,31.13
2018-05-18T09:44:21.300Z,30.00
2018-05-18T09:46:49.787Z,31.17
2018-05-18T09:49:18.956Z,37.50
2018-05-18T09:51:47.286Z,33.40
2018-05-18T09:54:15.779Z,30.00
2018-05-18T09:56:43.981Z,34.67
2018-05-18T09:59:12.292Z,35.80
2018-05-18T10:01:40.703Z,29.13
2018-05-18T10:04:09.774Z,41.10
2018-05-18T10:06:38.114Z,31.67
2018-05-18T10:09:07.345Z,37.43
2018-05-18T10:11:35.677Z,29.13
2018-05-18T10:14:04.017Z,30.97
2018-05-18T10:16:32.339Z,37.73
2018-05-18T10:19:00.676Z,32.93
2018-05-18T10:21:29.413Z,30.10
2018-05-18T10:23:57.853Z,33.73
2018-05-18T10:26:26.158Z,42.23
2018-05-18T10:28:54.576Z,39.67
2018-05-18T10:31:22.911Z,39.83
2018-05-18T10:33:51.259Z,35.27
2018-05-18T10:36:19.582Z,30.87
2018-05-18T10:38:47.941Z,28.10
2018-05-18T10:41:16.257Z,37.53
2018-05-18T10:43:45.365Z,33.20
2018-05-18T10:46:14.466Z,38.37
2018-05-18T10:48:43.616Z,37.00
2018-05-18T10:51:13.074Z,31.37
2018-05-18T10:53:41.410Z,32.63
2018-05-18T10:56:09.705Z,38.27
2018-05-18T10:58:38.064Z,30.87
2018-05-18T11:01:06.816Z,33.13
2018-05-18T11:03:35.420Z,38.07
2018-05-18T11:06:03.762Z,33.63
2018-05-18T11:08:32.147Z,30.23
2018-05-18T11:11:01.301Z,37.43
2018-05-18T11:13:29.650Z,33.93
2018-05-18T11:15:58.047Z,33.77
2018-05-18T11:18:26.441Z,29.67
2018-05-18T11:20:54.770Z,30.20
2018-05-18T11:23:23.103Z,40.87
2018-05-18T11:25:51.443Z,39.67
2018-05-18T11:28:20.531Z,38.23
2018-05-18T11:30:48.885Z,29.10
2018-05-18T11:33:17.234Z,33.07
2018-05-18T11:35:45.549Z,29.70
2018-05-18T11:38:13.883Z,27.87
2018-05-18T11:40:42.208Z,36.13
2018-05-18T11:43:10.549Z,32.47
2018-05-18T11:45:38.908Z,33.50
2018-05-18T11:48:08.046Z,35.40
2018-05-18T11:50:37.100Z,37.93
2018-05-18T11:53:05.445Z,28.97
2018-05-18T11:55:33.765Z,32.90
2018-05-18T11:58:02.130Z,38.17
2018-05-18T12:00:30.466Z,30.23
2018-05-18T12:02:58.839Z,34.97
2018-05-18T12:05:27.950Z,29.37
2018-05-18T12:07:56.288Z,31.93
2018-05-18T12:10:24.634Z,32.60
2018-05-18T12:12:52.943Z,33.13
2018-05-18T12:15:21.263Z,34.57
2018-05-18T12:17:49.590Z,29.47
2018-05-18T12:20:18.038Z,31.40
2018-05-18T12:22:47.289Z,32.93
2018-05-18T12:25:16.541Z,30.47
2018-05-18T12:27:44.858Z,31.47
2018-05-18T12:30:14.400Z,38.40
2018-05-18T12:32:42.874Z,28.83
2018-05-18T12:35:11.491Z,28.17
2018-05-18T12:37:40.903Z,30.83
2018-05-18T12:40:09.548Z,31.70
2018-05-18T12:42:37.907Z,28.93
2018-05-18T12:45:07.467Z,29.43
2018-05-18T12:47:36.566Z,42.13
2018-05-18T12:50:06.036Z,29.87
2018-05-18T12:52:35.472Z,31.57
2018-05-18T12:55:03.914Z,30.57
2018-05-18T12:57:32.241Z,28.13
2018-05-18T13:00:01.393Z,24.23
2018-05-18T13:02:30.425Z,31.53
2018-05-18T13:04:58.779Z,30.17
2018-05-18T13:07:27.113Z,31.97
2018-05-18T13:09:56.209Z,22.77
2018-05-18T13:12:25.290Z,26.67
2018-05-18T13:14:53.744Z,27.80
2018-05-18T13:17:22.082Z,23.13
2018-05-18T13:19:50.518Z,29.97
2018-05-18T13:22:18.872Z,30.40
2018-05-18T13:24:47.199Z,28.87
2018-05-18T13:27:15.530Z,30.10
2018-05-18T13:29:43.862Z,26.80
2018-05-18T13:32:12.193Z,30.17
2018-05-18T13:34:40.514Z,32.17
2018-05-18T13:37:08.871Z,29.43
2018-05-18T13:39:37.191Z,34.23
2018-05-18T13:42:05.573Z,30.00
2018-05-18T13:44:34.032Z,28.03
2018-05-18T13:47:03.164Z,34.10
2018-05-18T13:49:31.525Z,30.57
2018-05-18T13:52:01.380Z,28.23
2018-05-18T13:54:29.734Z,29.17
2018-05-18T13:56:58.448Z,27.53
2018-05-18T13:59:27.706Z,30.00
2018-05-18T14:01:56.093Z,27.03
2018-05-18T14:04:24.495Z,33.40
2018-05-18T14:06:53.617Z,28.33
2018-05-18T14:09:22.753Z,36.17
2018-05-18T14:11:51.121Z,23.53
2018-05-18T14:14:19.469Z,35.23
2018-05-18T14:16:48.745Z,27.67
2018-05-18T14:19:17.176Z,29.97
2018-05-18T14:21:45.536Z,31.73
2018-05-18T14:24:14.656Z,32.30
2018-05-18T14:26:43.016Z,29.57
2018-05-18T14:29:12.138Z,34.10
2018-05-18T14:31:40.549Z,31.37
2018-05-18T14:34:08.897Z,34.37
2018-05-18T14:36:37.273Z,30.23
2018-05-18T14:39:06.364Z,27.53
2018-05-18T14:41:34.724Z,31.10
2018-05-18T14:44:03.242Z,28.47
2018-05-18T14:46:31.431Z,27.27
2018-05-18T14:48:59.789Z,34.43
2018-05-18T14:51:28.138Z,28.70
2018-05-18T14:53:56.532Z,34.30
2018-05-18T14:56:25.012Z,28.77
2018-05-18T14:58:53.390Z,29.17
2018-05-18T15:01:21.765Z,38.07
2018-05-18T15:03:50.120Z,39.37
2018-05-18T15:06:18.541Z,32.13
2018-05-18T15:08:46.906Z,34.77
2018-05-18T15:11:15.225Z,34.23
2018-05-18T15:13:43.584Z,29.33
2018-05-18T15:16:11.911Z,36.57
2018-05-18T15:18:41.036Z,33.97
2018-05-18T15:21:09.351Z,28.33
2018-05-18T15:23:37.707Z,38.33
2018-05-18T15:26:06.073Z,28.43
2018-05-18T15:28:34.497Z,31.83
2018-05-18T15:31:02.805Z,34.53
2018-05-18T15:33:31.904Z,35.47
2018-05-18T15:36:01.236Z,32.17
2018-05-18T15:38:29.683Z,30.20
2018-05-18T15:40:59.798Z,35.80
2018-05-18T15:43:28.139Z,37.27
2018-05-18T15:45:56.492Z,30.63
2018-05-18T15:48:24.939Z,39.10
2018-05-18T15:50:53.326Z,38.90
2018-05-18T15:53:21.649Z,34.83
2018-05-18T15:55:50.236Z,38.93
2018-05-18T15:58:18.719Z,32.60
2018-05-18T16:00:47.139Z,31.90
2018-05-18T16:03:15.466Z,43.83
2018-05-18T16:05:44.566Z,38.13
2018-05-18T16:08:12.920Z,29.60
2018-05-18T16:10:41.231Z,35.97
2018-05-18T16:13:10.362Z,31.93
2018-05-18T16:15:38.689Z,39.53
2018-05-18T16:18:07.076Z,31.83
2018-05-18T16:20:35.449Z,35.90
2018-05-18T16:23:03.800Z,31.97
2018-05-18T16:25:32.116Z,43.50
2018-05-18T16:28:00.480Z,30.20
2018-05-18T16:30:28.816Z,39.83
2018-05-18T16:32:57.899Z,37.83
2018-05-18T16:35:26.999Z,38.10
2018-05-18T16:37:55.342Z,37.43
2018-05-18T16:40:23.699Z,39.00
2018-05-18T16:42:52.108Z,34.70
2018-05-18T16:45:20.466Z,38.23
2018-05-18T16:47:48.786Z,40.77
2018-05-18T16:50:17.109Z,40.07
2018-05-18T16:52:45.613Z,43.33
2018-05-18T16:55:14.582Z,35.40
2018-05-18T16:57:43.681Z,47.43
2018-05-18T17:00:12.321Z,45.58
2018-05-18T17:02:40.663Z,40.33
2018-05-18T17:05:09.009Z,41.10
2018-05-18T17:07:37.350Z,41.80
2018-05-18T17:10:05.669Z,36.33
2018-05-18T17:12:34.034Z,46.23
2018-05-18T17:15:02.384Z,41.07
2018-05-18T17:17:30.813Z,42.10
2018-05-18T17:19:59.286Z,44.50
2018-05-18T17:22:27.647Z,41.03
2018-05-18T17:24:55.984Z,37.47
2018-05-18T17:27:25.096Z,38.03
2018-05-18T17:29:54.220Z,40.63
2018-05-18T17:32:22.552Z,35.43
2018-05-18T17:34:51.699Z,40.27
2018-05-18T17:37:20.389Z,40.27
2018-05-18T17:39:48.775Z,46.30
2018-05-18T17:42:17.183Z,38.63
2018-05-18T17:44:46.288Z,42.20
2018-05-18T17:47:14.637Z,42.17
2018-05-18T17:49:42.982Z,44.47
2018-05-18T17:52:20.220Z,38.43
2018-05-18T17:54:52.238Z,40.10
2018-05-18T17:57:21.694Z,41.73
2018-05-18T17:59:50.043Z,62.57
2018-05-18T18:02:18.432Z,44.63
2018-05-18T18:04:46.769Z,47.60
2018-05-18T18:07:15.257Z,37.80
2018-05-18T18:09:44.372Z,39.20
2018-05-18T18:12:14.258Z,32.10
2018-05-18T18:14:42.594Z,41.40
2018-05-18T18:17:10.943Z,37.77
2018-05-18T18:19:40.037Z,41.37
2018-05-18T18:22:08.499Z,34.63
2018-05-18T18:24:36.834Z,39.80
2018-05-18T18:27:05.263Z,41.10
2018-05-18T18:29:33.605Z,42.13
2018-05-18T18:32:01.962Z,38.60
2018-05-18T18:34:31.077Z,39.87
2018-05-18T18:37:00.191Z,36.10
2018-05-18T18:39:28.545Z,38.60
2018-05-18T18:41:57.915Z,48.57
2018-05-18T18:44:26.288Z,35.27
2018-05-18T18:46:55.243Z,34.47
2018-05-18T18:49:24.396Z,38.07
2018-05-18T18:51:52.738Z,33.40
2018-05-18T18:54:21.108Z,35.90
2018-05-18T18:56:49.446Z,38.17
2018-05-18T18:59:17.819Z,42.70
2018-05-18T19:01:46.202Z,36.27
2018-05-18T19:04:14.605Z,45.57
2018-05-18T19:06:43.007Z,40.73
2018-05-18T19:09:13.054Z,30.23
2018-05-18T19:11:41.630Z,42.73
2018-05-18T19:14:10.710Z,43.40
2018-05-18T19:16:39.047Z,36.90
2018-05-18T19:19:07.375Z,38.43
2018-05-18T19:21:35.743Z,37.67
2018-05-18T19:24:04.296Z,44.80
2018-05-18T19:26:32.793Z,37.30
2018-05-18T19:29:01.958Z,38.67
2018-05-18T19:31:30.311Z,40.80
2018-05-18T19:33:59.420Z,43.80
2018-05-18T19:36:28.578Z,42.87
2018-05-18T19:38:56.954Z,34.07
2018-05-18T19:41:25.333Z,41.83
2018-05-18T19:43:53.682Z,39.90
2018-05-18T19:46:22.047Z,33.07
2018-05-18T19:48:51.159Z,41.70
2018-05-18T19:51:19.510Z,38.80
2018-05-18T19:53:47.863Z,40.13
2018-05-18T19:56:16.966Z,40.57
2018-05-18T19:58:45.297Z,38.90
2018-05-18T20:01:13.676Z,33.33
2018-05-18T20:03:42.768Z,47.57
2018-05-18T20:06:11.921Z,46.03
2018-05-18T20:08:40.312Z,46.20
2018-05-18T20:11:08.799Z,46.27
2018-05-18T20:13:37.222Z,46.83
2018-05-18T20:16:06.389Z,42.77
2018-05-18T20:18:35.181Z,35.83
2018-05-18T20:21:03.819Z,30.73
2018-05-18T20:23:32.185Z,46.10
2018-05-18T20:26:01.536Z,38.03
2018-05-18T20:28:29.957Z,39.17
2018-05-18T20:30:58.433Z,40.30
2018-05-18T20:33:27.620Z,38.50
2018-05-18T20:35:56.627Z,49.73
2018-05-18T20:38:25.001Z,37.93
2018-05-18T20:40:53.368Z,42.80
2018-05-18T20:43:21.748Z,43.57
2018-05-18T20:45:50.067Z,40.40
2018-05-18T20:48:18.417Z,41.43
2018-05-18T20:50:46.736Z,38.40
2018-05-18T20:53:15.099Z,35.93
2018-05-18T20:55:43.427Z,38.90
2018-05-18T20:58:11.784Z,43.47
2018-05-18T21:00:40.115Z,37.37
2018-05-18T21:03:08.500Z,38.37
2018-05-18T21:05:36.859Z,47.37
2018-05-18T21:08:05.319Z,51.67
2018-05-18T21:10:34.486Z,37.30
2018-05-18T21:13:02.797Z,31.97
2018-05-18T21:15:31.920Z,41.33
2018-05-18T21:18:00.271Z,39.07
2018-05-18T21:20:28.627Z,43.87
2018-05-18T21:22:57.016Z,39.53
2018-05-18T21:25:25.393Z,37.40
2018-05-18T21:27:53.736Z,40.73
2018-05-18T21:30:22.201Z,35.67
2018-05-18T21:32:50.548Z,36.50
2018-05-18T21:35:20.463Z,31.60
2018-05-18T21:37:48.780Z,41.63
2018-05-18T21:40:17.875Z,43.97
2018-05-18T21:42:46.976Z,48.07
2018-05-18T21:45:16.106Z,40.27
2018-05-18T21:47:44.477Z,51.23
2018-05-18T21:50:12.800Z,42.03
2018-05-18T21:52:41.128Z,47.60
2018-05-18T21:55:10.246Z,37.70
2018-05-18T21:57:38.600Z,42.03
2018-05-18T22:00:07.698Z,42.10
2018-05-18T22:02:36.411Z,36.90
2018-05-18T22:05:04.736Z,39.90
2018-05-18T22:07:34.510Z,45.47
2018-05-18T22:10:02.936Z,33.70
2018-05-18T22:12:32.339Z,32.03
2018-05-18T22:15:01.504Z,38.33
2018-05-18T22:17:29.939Z,37.33
2018-05-18T22:19:58.267Z,42.40
2018-05-18T22:22:27.032Z,48.20
2018-05-18T22:24:55.473Z,37.37
2018-05-18T22:27:23.785Z,26.07
2018-05-18T22:29:52.126Z,44.60
2018-05-18T22:32:20.475Z,41.43
2018-05-18T22:34:48.794Z,47.23
2018-05-18T22:37:17.119Z,35.57
2018-05-18T22:39:46.256Z,40.67
2018-05-18T22:42:14.571Z,41.20
2018-05-18T22:44:42.937Z,39.23
2018-05-18T22:47:11.259Z,35.13
2018-05-18T22:49:39.620Z,32.30
2018-05-18T22:52:07.941Z,34.33
2018-05-18T22:54:37.017Z,38.20
2018-05-18T22:57:06.149Z,41.63
2018-05-18T22:59:34.479Z,46.07
2018-05-18T23:02:02.858Z,41.70
2018-05-18T23:04:31.188Z,41.50
2018-05-18T23:07:00.285Z,40.83
2018-05-18T23:09:28.612Z,36.53
2018-05-18T23:11:57.000Z,37.00
2018-05-18T23:14:25.372Z,43.23
2018-05-18T23:16:53.746Z,38.70
2018-05-18T23:19:22.227Z,43.90
2018-05-18T23:21:50.610Z,38.23
2018-05-18T23:24:18.928Z,42.13
2018-05-18T23:26:47.264Z,42.17
2018-05-18T23:29:15.572Z,38.60
2018-05-18T23:31:43.901Z,33.97
2018-05-18T23:34:13.015Z,34.80
2018-05-18T23:36:41.335Z,37.00
2018-05-18T23:39:09.660Z,42.57
2018-05-18T23:41:38.754Z,31.97
2018-05-18T23:44:07.856Z,32.43
2018-05-18T23:46:36.947Z,37.53
2018-05-18T23:49:05.272Z,40.57
2018-05-18T23:51:33.598Z,42.60
2018-05-18T23:54:01.926Z,39.17
2018-05-18T23:56:30.253Z,38.27
2018-05-18T23:58:58.572Z,28.33
